Time;durP1;ratioP1;P1;durP2;ratioP2;P2;SDS_P1;SDS_P2;PMS_P1;PMS_P2;Temp;Humidity;BMP_temperature;BMP_pressure;BME280_temperature;BME280_humidity;BME280_pressure;Samples;Min_cycle;Max_cycle;Signal;HPM_P1;HPM_P2
2024/02/14 00:01:10;;;;;;;;;;;;;;;;;;2202109;59;1848;-16
2024/02/14 00:03:41;;;;;;;;;;;;;;;;;;2200495;59;1937;-16
2024/02/14 00:06:13;;;;;;;;;;;;;;;;;;2202015;67;1765;-16
2024/02/14 00:08:43;;;;;;;;;;;;;;;;;;2197272;67;2084;-16
2024/02/14 00:11:24;;;;;;;;;;;;;;;;;;2202214;59;1808;-16
2024/02/14 00:13:55;;;;;;;;;;;;;;;;;;2199722;59;1914;-16
2024/02/14 00:16:28;;;;;;;;;;;;;;;;;;2203236;67;1946;-16
2024/02/14 00:18:59;;;;;;;;;;;;;;;;;;2201111;67;1899;-16
2024/02/14 00:21:29;;;;;;;;;;;;;;;;;;2203968;67;1751;-16
2024/02/14 00:24:01;;;;;;;;;;;;;;;;;;2200906;59;1925;-16
2024/02/14 00:26:31;;;;;;;;;;;;;;;;;;2202573;67;1857;-16
2024/02/14 00:29:02;;;;;;;;;;;;;;;;;;2200974;67;2034;-16
2024/02/14 00:31:33;;;;;;;;;;;;;;;;;;2202629;67;1783;-16
2024/02/14 00:34:04;;;;;;;;;;;;;;;;;;2200507;59;2413;-16
2024/02/14 00:36:35;;;;;;;;;;;;;;;;;;2202564;59;1816;-16
2024/02/14 00:39:08;;;;;;;;;;;;;;;;;;2204148;59;1840;-16
2024/02/14 00:41:39;;;;;;;;;;;;;;;;;;2203754;59;2183;-16
2024/02/14 00:44:09;;;;;;;;;;;;;;;;;;2201184;67;2504;-16
2024/02/14 00:46:40;;;;;;;;;;;;;;;;;;2203236;59;1873;-16
2024/02/14 00:49:10;;;;;;;;;;;;;;;;;;2200725;59;1852;-16
2024/02/14 00:51:41;;;;;;;;;;;;;;;;;;2202087;59;1744;-16
2024/02/14 00:54:14;;;;;;;;;;;;;;;;;;2202168;67;1931;-16
2024/02/14 00:56:44;;;;;;;;;;;;;;;;;;2201723;59;1877;-16
2024/02/14 00:59:15;;;;;;;;;;;;;;;;;;2202093;67;1872;-16
2024/02/14 01:01:45;;;;;;;;;;;;;;;;;;2201014;67;2023;-16
2024/02/14 01:04:15;;;;;;;;;;;;;;;;;;2203778;59;1838;-16
2024/02/14 01:06:46;;;;;;;;;;;;;;;;;;2200026;60;2006;-16
2024/02/14 01:09:17;;;;;;;;;;;;;;;;;;2202006;67;1786;-16
2024/02/14 01:11:48;;;;;;;;;;;;;;;;;;2200826;67;1781;-16
2024/02/14 01:14:19;;;;;;;;;;;;;;;;;;2203258;59;1844;-16
2024/02/14 01:16:49;;;;;;;;;;;;;;;;;;2201319;60;1972;-16
2024/02/14 01:19:19;;;;;;;;;;;;;;;;;;2202865;67;1948;-16
2024/02/14 01:21:50;;;;;;;;;;;;;;;;;;2200896;59;2182;-16
2024/02/14 01:24:22;;;;;;;;;;;;;;;;;;2203305;67;1854;-16
2024/02/14 01:26:53;;;;;;;;;;;;;;;;;;2200293;67;1765;-16
2024/02/14 01:29:24;;;;;;;;;;;;;;;;;;2202381;67;1923;-16
2024/02/14 01:31:55;;;;;;;;;;;;;;;;;;2204107;67;2414;-16
2024/02/14 01:34:25;;;;;;;;;;;;;;;;;;2203423;67;1882;-16
2024/02/14 01:36:56;;;;;;;;;;;;;;;;;;2201755;59;1766;-16
2024/02/14 01:39:26;;;;;;;;;;;;;;;;;;2202421;67;1914;-16
2024/02/14 01:41:56;;;;;;;;;;;;;;;;;;2202765;59;2040;-16
2024/02/14 01:44:27;;;;;;;;;;;;;;;;;;2202813;67;1943;-16
2024/02/14 01:46:58;;;;;;;;;;;;;;;;;;2202224;59;1884;-16
2024/02/14 01:49:29;;;;;;;;;;;;;;;;;;2203626;59;2223;-17
2024/02/14 01:52:02;;;;;;;;;;;;;;;;;;2203172;59;1820;-16
2024/02/14 01:54:33;;;;;;;;;;;;;;;;;;2201872;67;2550;-16
2024/02/14 01:57:04;;;;;;;;;;;;;;;;;;2202168;59;1870;-16
2024/02/14 01:59:35;;;;;;;;;;;;;;;;;;2203541;67;1648;-16
2024/02/14 02:02:07;;;;;;;;;;;;;;;;;;2201759;59;2015;-16
2024/02/14 02:04:37;;;;;;;;;;;;;;;;;;2202973;67;2048;-17
2024/02/14 02:07:07;;;;;;;;;;;;;;;;;;2202156;67;2493;-16
2024/02/14 02:09:38;;;;;;;;;;;;;;;;;;2202922;59;1734;-17
2024/02/14 02:12:08;;;;;;;;;;;;;;;;;;2202295;67;1911;-16
2024/02/14 02:14:40;;;;;;;;;;;;;;;;;;2203136;59;1700;-16
2024/02/14 02:17:11;;;;;;;;;;;;;;;;;;2200820;59;1807;-17
2024/02/14 02:19:42;;;;;;;;;;;;;;;;;;2201582;67;2011;-16
2024/02/14 02:22:12;;;;;;;;;;;;;;;;;;2199160;59;1992;-16
2024/02/14 02:24:42;;;;;;;;;;;;;;;;;;2201811;67;1987;-16
2024/02/14 02:27:16;;;;;;;;;;;;;;;;;;2200606;59;1851;-16
2024/02/14 02:29:47;;;;;;;;;;;;;;;;;;2202308;67;1845;-16
2024/02/14 02:32:17;;;;;;;;;;;;;;;;;;2201673;67;2437;-16
2024/02/14 02:34:48;;;;;;;;;;;;;;;;;;2202718;59;2013;-16
2024/02/14 02:37:19;;;;;;;;;;;;;;;;;;2202136;59;2456;-16
2024/02/14 02:39:49;;;;;;;;;;;;;;;;;;2202744;59;1812;-17
2024/02/14 02:42:19;;;;;;;;;;;;;;;;;;2199828;59;2221;-16
2024/02/14 02:44:50;;;;;;;;;;;;;;;;;;2202740;59;2917;-16
2024/02/14 02:47:20;;;;;;;;;;;;;;;;;;2201475;59;2047;-16
2024/02/14 02:49:52;;;;;;;;;;;;;;;;;;2203093;59;1884;-21
2024/02/14 02:52:22;;;;;;;;;;;;;;;;;;2201236;59;2036;-16
2024/02/14 02:54:53;;;;;;;;;;;;;;;;;;2202035;59;2434;-17
2024/02/14 02:57:23;;;;;;;;;;;;;;;;;;2202312;59;1964;-16
2024/02/14 02:59:54;;;;;;;;;;;;;;;;;;2202333;59;2336;-16
2024/02/14 03:02:25;;;;;;;;;;;;;;;;;;2202710;59;1933;-17
2024/02/14 03:04:56;;;;;;;;;;;;;;;;;;2201376;67;1952;-16
2024/02/14 03:07:27;;;;;;;;;;;;;;;;;;2202903;67;2337;-16
2024/02/14 03:09:57;;;;;;;;;;;;;;;;;;2202561;67;2554;-16
2024/02/14 03:12:30;;;;;;;;;;;;;;;;;;2203877;67;2503;-17
2024/02/14 03:15:03;;;;;;;;;;;;;;;;;;2201592;59;2159;-16
2024/02/14 03:17:34;;;;;;;;;;;;;;;;;;2202755;67;1836;-16
2024/02/14 03:20:14;;;;;;;;;;;;;;;;;;2201527;67;1794;-17
2024/02/14 03:22:45;;;;;;;;;;;;;;;;;;2201721;59;1986;-17
2024/02/14 03:25:17;;;;;;;;;;;;;;;;;;2200693;67;2594;-16
2024/02/14 03:27:51;;;;;;;;;;;;;;;;;;2202412;67;1808;-16
2024/02/14 03:30:22;;;;;;;;;;;;;;;;;;2201122;67;1915;-16
2024/02/14 03:32:52;;;;;;;;;;;;;;;;;;2201661;59;1891;-16
2024/02/14 03:35:22;;;;;;;;;;;;;;;;;;2199901;67;1974;-17
2024/02/14 03:37:53;;;;;;;;;;;;;;;;;;2202235;59;2307;-17
2024/02/14 03:40:23;;;;;;;;;;;;;;;;;;2200351;67;1851;-16
2024/02/14 03:42:54;;;;;;;;;;;;;;;;;;2205244;59;2003;-16
2024/02/14 03:45:24;;;;;;;;;;;;;;;;;;2199998;67;1905;-16
2024/02/14 03:47:54;;;;;;;;;;;;;;;;;;2202239;59;2351;-16
2024/02/14 03:50:32;;;;;;;;;;;;;;;;;;2201381;67;1800;-16
2024/02/14 03:53:03;;;;;;;;;;;;;;;;;;2199868;59;2290;-16
2024/02/14 03:55:34;;;;;;;;;;;;;;;;;;2201637;67;2232;-16
2024/02/14 03:58:06;;;;;;;;;;;;;;;;;;2201247;59;1986;-16
2024/02/14 04:00:36;;;;;;;;;;;;;;;;;;2202830;59;1696;-16
2024/02/14 04:03:07;;;;;;;;;;;;;;;;;;2200195;59;2590;-16
2024/02/14 04:05:37;;;;;;;;;;;;;;;;;;2201208;59;1920;-16
2024/02/14 04:08:09;;;;;;;;;;;;;;;;;;2201195;67;1866;-18
2024/02/14 04:10:39;;;;;;;;;;;;;;;;;;2202345;59;1861;-16
2024/02/14 04:13:10;;;;;;;;;;;;;;;;;;2201083;67;1840;-16
2024/02/14 04:15:42;;;;;;;;;;;;;;;;;;2202035;64;1776;-16
2024/02/14 04:18:14;;;;;;;;;;;;;;;;;;2201780;67;1943;-16
2024/02/14 04:20:44;;;;;;;;;;;;;;;;;;2203919;67;2314;-16
2024/02/14 04:23:15;;;;;;;;;;;;;;;;;;2200648;59;2064;-16
2024/02/14 04:25:50;;;;;;;;;;;;;;;;;;2202415;67;1930;-16
2024/02/14 04:28:21;;;;;;;;;;;;;;;;;;2201252;67;1817;-16
2024/02/14 04:30:53;;;;;;;;;;;;;;;;;;2203541;67;2693;-16
2024/02/14 04:33:24;;;;;;;;;;;;;;;;;;2201556;59;1981;-17
2024/02/14 04:35:55;;;;;;;;;;;;;;;;;;2202569;59;1896;-16
2024/02/14 04:38:25;;;;;;;;;;;;;;;;;;2201767;59;1844;-16
2024/02/14 04:40:56;;;;;;;;;;;;;;;;;;2203155;59;1798;-17
2024/02/14 04:43:27;;;;;;;;;;;;;;;;;;2200764;67;1983;-16
2024/02/14 04:45:57;;;;;;;;;;;;;;;;;;2202746;59;2289;-16
2024/02/14 04:48:27;;;;;;;;;;;;;;;;;;2200185;60;2004;-16
2024/02/14 04:50:58;;;;;;;;;;;;;;;;;;2202752;59;2138;-16
2024/02/14 04:53:28;;;;;;;;;;;;;;;;;;2202412;67;2126;-17
2024/02/14 04:55:59;;;;;;;;;;;;;;;;;;2203610;59;1942;-16
2024/02/14 04:58:29;;;;;;;;;;;;;;;;;;2202204;67;1880;-16
2024/02/14 05:01:01;;;;;;;;;;;;;;;;;;2202967;59;1938;-16
2024/02/14 05:03:31;;;;;;;;;;;;;;;;;;2203085;59;2472;-16
2024/02/14 05:06:02;;;;;;;;;;;;;;;;;;2202843;67;2635;-16
2024/02/14 05:08:32;;;;;;;;;;;;;;;;;;2201300;67;1837;-16
2024/02/14 05:11:03;;;;;;;;;;;;;;;;;;2198772;67;1836;-16
2024/02/14 05:13:34;;;;;;;;;;;;;;;;;;2203623;59;3301;-16
2024/02/14 05:16:04;;;;;;;;;;;;;;;;;;2202876;67;2339;-16
2024/02/14 05:18:35;;;;;;;;;;;;;;;;;;2202186;67;2073;-16
2024/02/14 05:21:07;;;;;;;;;;;;;;;;;;2201401;67;1782;-16
2024/02/14 05:23:37;;;;;;;;;;;;;;;;;;2202463;59;2188;-16
2024/02/14 05:26:08;;;;;;;;;;;;;;;;;;2200953;67;1800;-16
2024/02/14 05:28:38;;;;;;;;;;;;;;;;;;2202331;67;1890;-16
2024/02/14 05:31:08;;;;;;;;;;;;;;;;;;2201370;67;1961;-16
2024/02/14 05:33:39;;;;;;;;;;;;;;;;;;2202689;59;1866;-16
2024/02/14 05:36:10;;;;;;;;;;;;;;;;;;2200843;59;2457;-16
2024/02/14 05:38:40;;;;;;;;;;;;;;;;;;2201958;59;1864;-16
2024/02/14 05:41:11;;;;;;;;;;;;;;;;;;2198033;59;1885;-16
2024/02/14 05:43:41;;;;;;;;;;;;;;;;;;2202576;59;1992;-16
2024/02/14 05:46:14;;;;;;;;;;;;;;;;;;2198215;59;1896;-16
2024/02/14 05:48:45;;;;;;;;;;;;;;;;;;2203702;59;1802;-16
2024/02/14 05:51:15;;;;;;;;;;;;;;;;;;2200996;59;1945;-16
2024/02/14 05:53:45;;;;;;;;;;;;;;;;;;2202855;67;2082;-16
2024/02/14 05:56:19;;;;;;;;;;;;;;;;;;2201815;59;2473;-16
2024/02/14 05:58:49;;;;;;;;;;;;;;;;;;2202926;67;2343;-16
2024/02/14 06:01:20;;;;;;;;;;;;;;;;;;2201188;59;1892;-16
2024/02/14 06:03:50;;;;;;;;;;;;;;;;;;2201856;59;1941;-17
2024/02/14 06:06:21;;;;;;;;;;;;;;;;;;2201100;59;1870;-16
2024/02/14 06:08:51;;;;;;;;;;;;;;;;;;2202210;67;1920;-16
2024/02/14 06:11:21;;;;;;;;;;;;;;;;;;2203325;67;2493;-16
2024/02/14 06:13:52;;;;;;;;;;;;;;;;;;2201881;67;1794;-17
2024/02/14 06:16:22;;;;;;;;;;;;;;;;;;2200860;67;1870;-16
2024/02/14 06:18:53;;;;;;;;;;;;;;;;;;2201044;67;1791;-16
2024/02/14 06:21:24;;;;;;;;;;;;;;;;;;2200613;67;2060;-16
2024/02/14 06:23:54;;;;;;;;;;;;;;;;;;2203226;59;2467;-16
2024/02/14 06:26:25;;;;;;;;;;;;;;;;;;2199367;67;1832;-16
2024/02/14 06:28:55;;;;;;;;;;;;;;;;;;2201169;67;2033;-17
2024/02/14 06:31:25;;;;;;;;;;;;;;;;;;2201029;67;2483;-16
2024/02/14 06:33:55;;;;;;;;;;;;;;;;;;2201645;59;2284;-17
2024/02/14 06:36:26;;;;;;;;;;;;;;;;;;2201509;59;2028;-17
2024/02/14 06:38:56;;;;;;;;;;;;;;;;;;2203575;59;1982;-17
2024/02/14 06:41:26;;;;;;;;;;;;;;;;;;2201520;59;1898;-16
2024/02/14 06:43:57;;;;;;;;;;;;;;;;;;2202061;67;1952;-16
2024/02/14 06:46:27;;;;;;;;;;;;;;;;;;2200231;59;1997;-16
2024/02/14 06:48:58;;;;;;;;;;;;;;;;;;2202967;59;1778;-16
2024/02/14 06:51:28;;;;;;;;;;;;;;;;;;2200552;67;1849;-16
2024/02/14 06:53:58;;;;;;;;;;;;;;;;;;2201900;59;2462;-17
2024/02/14 06:56:32;;;;;;;;;;;;;;;;;;2201465;59;1868;-16
2024/02/14 06:59:03;;;;;;;;;;;;;;;;;;2202191;67;1916;-16
2024/02/14 07:01:33;;;;;;;;;;;;;;;;;;2201566;59;1968;-16
2024/02/14 07:04:04;;;;;;;;;;;;;;;;;;2200122;59;2080;-16
2024/02/14 07:06:34;;;;;;;;;;;;;;;;;;2201772;67;1748;-16
2024/02/14 07:09:05;;;;;;;;;;;;;;;;;;2198500;67;1848;-16
2024/02/14 07:11:38;;;;;;;;;;;;;;;;;;2199919;59;2152;-16
2024/02/14 07:14:08;;;;;;;;;;;;;;;;;;2200649;59;2333;-16
2024/02/14 07:16:38;;;;;;;;;;;;;;;;;;2200922;67;2170;-17
2024/02/14 07:19:09;;;;;;;;;;;;;;;;;;2201722;59;3180;-17
2024/02/14 07:21:39;;;;;;;;;;;;;;;;;;2199786;59;2054;-16
2024/02/14 07:24:09;;;;;;;;;;;;;;;;;;2201555;59;1989;-16
2024/02/14 07:26:44;;;;;;;;;;;;;;;;;;2199446;59;2478;-17
2024/02/14 07:29:14;;;;;;;;;;;;;;;;;;2200443;59;2135;-16
2024/02/14 07:31:45;;;;;;;;;;;;;;;;;;2201690;67;2512;-16
2024/02/14 07:34:15;;;;;;;;;;;;;;;;;;2199920;59;2578;-17
2024/02/14 07:36:46;;;;;;;;;;;;;;;;;;2201617;59;2179;-16
2024/02/14 07:39:16;;;;;;;;;;;;;;;;;;2199904;59;2549;-16
2024/02/14 07:41:49;;;;;;;;;;;;;;;;;;2201099;59;2347;-17
2024/02/14 07:44:19;;;;;;;;;;;;;;;;;;2200559;59;2392;-17
2024/02/14 07:46:50;;;;;;;;;;;;;;;;;;2201274;59;2164;-16
2024/02/14 07:49:20;;;;;;;;;;;;;;;;;;2199816;59;2472;-17
2024/02/14 07:51:51;;;;;;;;;;;;;;;;;;2201159;59;2548;-16
2024/02/14 07:54:21;;;;;;;;;;;;;;;;;;2199289;59;1917;-17
2024/02/14 07:56:52;;;;;;;;;;;;;;;;;;2200562;59;1856;-17
2024/02/14 07:59:22;;;;;;;;;;;;;;;;;;2199646;59;2553;-16
2024/02/14 08:01:52;;;;;;;;;;;;;;;;;;2201362;59;1765;-17
2024/02/14 08:04:22;;;;;;;;;;;;;;;;;;2201021;63;1944;-17
2024/02/14 08:06:53;;;;;;;;;;;;;;;;;;2200430;59;2932;-17
2024/02/14 08:09:23;;;;;;;;;;;;;;;;;;2198454;59;2726;-17
2024/02/14 08:11:53;;;;;;;;;;;;;;;;;;2199699;67;1854;-17
2024/02/14 08:14:24;;;;;;;;;;;;;;;;;;2195911;59;2042;-17
2024/02/14 08:16:54;;;;;;;;;;;;;;;;;;2201257;59;1900;-17
2024/02/14 08:19:25;;;;;;;;;;;;;;;;;;2199706;67;1999;-19
2024/02/14 08:21:57;;;;;;;;;;;;;;;;;;2199109;59;1732;-19
2024/02/14 08:24:28;;;;;;;;;;;;;;;;;;2199647;67;1979;-19
2024/02/14 08:26:58;;;;;;;;;;;;;;;;;;2201745;67;1840;-19
2024/02/14 08:29:28;;;;;;;;;;;;;;;;;;2200716;67;1855;-19
2024/02/14 08:31:58;;;;;;;;;;;;;;;;;;2202517;67;1902;-19
2024/02/14 08:34:29;;;;;;;;;;;;;;;;;;2200673;59;2108;-19
2024/02/14 08:36:59;;;;;;;;;;;;;;;;;;2203572;59;2112;-19
2024/02/14 08:39:30;;;;;;;;;;;;;;;;;;2199901;59;2039;-19
2024/02/14 08:42:07;;;;;;;;;;;;;;;;;;2202833;59;1959;-19
2024/02/14 08:44:37;;;;;;;;;;;;;;;;;;2201397;67;1869;-19
2024/02/14 08:47:08;;;;;;;;;;;;;;;;;;2203283;59;1871;-19
2024/02/14 08:49:48;;;;;;;;;;;;;;;;;;2201526;67;1803;-19
2024/02/14 08:52:18;;;;;;;;;;;;;;;;;;2201982;59;1888;-19
2024/02/14 08:54:49;;;;;;;;;;;;;;;;;;2201260;59;2162;-19
2024/02/14 08:57:19;;;;;;;;;;;;;;;;;;2200014;64;2283;-20
2024/02/14 08:59:50;;;;;;;;;;;;;;;;;;2200724;59;2210;-19
2024/02/14 09:02:22;;;;;;;;;;;;;;;;;;2200719;67;2721;-19
2024/02/14 09:04:52;;;;;;;;;;;;;;;;;;2203088;67;1793;-19
2024/02/14 09:07:23;;;;;;;;;;;;;;;;;;2199807;67;2096;-20
2024/02/14 09:09:53;;;;;;;;;;;;;;;;;;2202239;59;2491;-17
2024/02/14 09:12:23;;;;;;;;;;;;;;;;;;2200380;59;1877;-17
2024/02/14 09:14:54;;;;;;;;;;;;;;;;;;2202405;59;2758;-17
2024/02/14 09:17:24;;;;;;;;;;;;;;;;;;2199936;67;1812;-17
2024/02/14 09:19:55;;;;;;;;;;;;;;;;;;2201479;59;1836;-17
2024/02/14 09:22:25;;;;;;;;;;;;;;;;;;2200761;59;1936;-17
2024/02/14 09:24:56;;;;;;;;;;;;;;;;;;2201741;67;2118;-17
2024/02/14 09:27:27;;;;;;;;;;;;;;;;;;2200962;59;1997;-17
2024/02/14 09:29:57;;;;;;;;;;;;;;;;;;2201313;67;1892;-17
2024/02/14 09:32:27;;;;;;;;;;;;;;;;;;2201279;67;2792;-17
2024/02/14 09:34:58;;;;;;;;;;;;;;;;;;2202131;67;1972;-17
2024/02/14 09:37:28;;;;;;;;;;;;;;;;;;2201432;59;1812;-17
2024/02/14 09:39:59;;;;;;;;;;;;;;;;;;2202172;67;1771;-17
2024/02/14 09:42:39;;;;;;;;;;;;;;;;;;2200483;59;2109;-17
2024/02/14 09:45:09;;;;;;;;;;;;;;;;;;2202335;59;1805;-17
2024/02/14 09:47:40;;;;;;;;;;;;;;;;;;2201448;59;2001;-17
2024/02/14 09:50:12;;;;;;;;;;;;;;;;;;2202660;59;2401;-17
2024/02/14 09:52:43;;;;;;;;;;;;;;;;;;2200353;67;1866;-17
2024/02/14 09:55:13;;;;;;;;;;;;;;;;;;2202039;59;1987;-17
2024/02/14 09:57:46;;;;;;;;;;;;;;;;;;2200637;59;1807;-17
2024/02/14 10:00:17;;;;;;;;;;;;;;;;;;2202982;59;1838;-17
2024/02/14 10:02:48;;;;;;;;;;;;;;;;;;2201103;59;2249;-17
2024/02/14 10:05:18;;;;;;;;;;;;;;;;;;2200359;67;2172;-17
2024/02/14 10:07:48;;;;;;;;;;;;;;;;;;2199946;59;1812;-17
2024/02/14 10:10:20;;;;;;;;;;;;;;;;;;2202096;67;2382;-17
2024/02/14 10:12:50;;;;;;;;;;;;;;;;;;2199923;67;1811;-17
2024/02/14 10:15:21;;;;;;;;;;;;;;;;;;2201248;59;1916;-17
2024/02/14 10:17:51;;;;;;;;;;;;;;;;;;2200936;67;1865;-17
2024/02/14 10:20:22;;;;;;;;;;;;;;;;;;2202100;67;1889;-17
2024/02/14 10:23:00;;;;;;;;;;;;;;;;;;2201262;59;2743;-17
2024/02/14 10:25:33;;;;;;;;;;;;;;;;;;2200471;67;1842;-17
2024/02/14 10:28:09;;;;;;;;;;;;;;;;;;2201031;67;1890;-17
2024/02/14 10:30:42;;;;;;;;;;;;;;;;;;2200292;67;1836;-17
2024/02/14 10:33:12;;;;;;;;;;;;;;;;;;2201448;59;2059;-17
2024/02/14 10:35:42;;;;;;;;;;;;;;;;;;2200363;64;2379;-17
2024/02/14 10:38:13;;;;;;;;;;;;;;;;;;2201528;59;1871;-17
2024/02/14 10:40:46;;;;;;;;;;;;;;;;;;2200320;59;2672;-17
2024/02/14 10:43:16;;;;;;;;;;;;;;;;;;2200635;67;2095;-17
2024/02/14 10:45:47;;;;;;;;;;;;;;;;;;2200391;59;1880;-17
2024/02/14 10:48:18;;;;;;;;;;;;;;;;;;2202313;59;2328;-17
2024/02/14 10:50:49;;;;;;;;;;;;;;;;;;2200666;59;1784;-17
2024/02/14 10:53:19;;;;;;;;;;;;;;;;;;2202734;67;2303;-17
2024/02/14 10:55:51;;;;;;;;;;;;;;;;;;2201016;59;2327;-17
2024/02/14 10:58:24;;;;;;;;;;;;;;;;;;2202372;67;1841;-17
2024/02/14 11:00:54;;;;;;;;;;;;;;;;;;2200817;59;1933;-17
2024/02/14 11:03:25;;;;;;;;;;;;;;;;;;2202067;59;2314;-17
2024/02/14 11:06:02;;;;;;;;;;;;;;;;;;2200967;67;1988;-17
2024/02/14 11:08:33;;;;;;;;;;;;;;;;;;2200930;67;1846;-17
2024/02/14 11:11:06;;;;;;;;;;;;;;;;;;2201356;59;1844;-17
2024/02/14 11:13:36;;;;;;;;;;;;;;;;;;2200578;59;2330;-17
2024/02/14 11:16:09;;;;;;;;;;;;;;;;;;2201157;67;1810;-17
2024/02/14 11:18:39;;;;;;;;;;;;;;;;;;2201164;67;3091;-17
2024/02/14 11:21:16;;;;;;;;;;;;;;;;;;2202000;67;2336;-17
2024/02/14 11:23:53;;;;;;;;;;;;;;;;;;2201314;59;2301;-17
2024/02/14 11:26:24;;;;;;;;;;;;;;;;;;2201806;59;2899;-17
2024/02/14 11:29:01;;;;;;;;;;;;;;;;;;2199467;67;1951;-17
2024/02/14 11:31:37;;;;;;;;;;;;;;;;;;2200052;67;1809;-17
2024/02/14 11:34:08;;;;;;;;;;;;;;;;;;2199854;59;2043;-17
2024/02/14 11:36:41;;;;;;;;;;;;;;;;;;2201466;59;1822;-17
2024/02/14 11:39:12;;;;;;;;;;;;;;;;;;2202003;67;1773;-17
2024/02/14 11:41:42;;;;;;;;;;;;;;;;;;2201270;59;1742;-17
2024/02/14 11:44:12;;;;;;;;;;;;;;;;;;2201655;67;1971;-17
2024/02/14 11:46:43;;;;;;;;;;;;;;;;;;2201397;59;2646;-17
2024/02/14 11:49:13;;;;;;;;;;;;;;;;;;2201555;67;2171;-17
2024/02/14 11:51:44;;;;;;;;;;;;;;;;;;2200634;59;1843;-17
2024/02/14 11:54:22;;;;;;;;;;;;;;;;;;2202033;59;1970;-17
2024/02/14 11:56:52;;;;;;;;;;;;;;;;;;2199673;59;1715;-17
2024/02/14 11:59:23;;;;;;;;;;;;;;;;;;2203160;59;2613;-17
2024/02/14 12:01:58;;;;;;;;;;;;;;;;;;2202196;59;2307;-17
2024/02/14 12:04:28;;;;;;;;;;;;;;;;;;2203634;59;1983;-17
2024/02/14 12:06:59;;;;;;;;;;;;;;;;;;2202957;67;1897;-17
2024/02/14 12:09:29;;;;;;;;;;;;;;;;;;2203463;67;1928;-30
2024/02/14 12:11:59;;;;;;;;;;;;;;;;;;2199616;67;1943;-17
2024/02/14 12:14:32;;;;;;;;;;;;;;;;;;2202644;59;1998;-17
2024/02/14 12:17:02;;;;;;;;;;;;;;;;;;2202450;67;2383;-17
2024/02/14 12:19:34;;;;;;;;;;;;;;;;;;2202470;67;2012;-17
2024/02/14 12:22:11;;;;;;;;;;;;;;;;;;2202920;59;1872;-17
2024/02/14 12:24:42;;;;;;;;;;;;;;;;;;2202046;67;1954;-17
2024/02/14 12:27:16;;;;;;;;;;;;;;;;;;2205086;67;1826;-17
2024/02/14 12:29:48;;;;;;;;;;;;;;;;;;2203535;67;2515;-17
2024/02/14 12:32:20;;;;;;;;;;;;;;;;;;2202638;67;2422;-17
2024/02/14 12:34:50;;;;;;;;;;;;;;;;;;2202559;67;1820;-17
2024/02/14 12:37:20;;;;;;;;;;;;;;;;;;2203216;59;1780;-18
2024/02/14 12:39:51;;;;;;;;;;;;;;;;;;2202600;67;1788;-17
2024/02/14 12:42:25;;;;;;;;;;;;;;;;;;2203521;59;2477;-17
2024/02/14 12:44:56;;;;;;;;;;;;;;;;;;2202771;67;1833;-17
2024/02/14 12:47:31;;;;;;;;;;;;;;;;;;2203591;59;2134;-18
2024/02/14 12:50:02;;;;;;;;;;;;;;;;;;2201700;59;2082;-18
2024/02/14 12:52:32;;;;;;;;;;;;;;;;;;2204320;59;1817;-17
2024/02/14 12:55:03;;;;;;;;;;;;;;;;;;2203681;59;1935;-18
2024/02/14 12:57:33;;;;;;;;;;;;;;;;;;2204303;59;1951;-17
2024/02/14 13:00:08;;;;;;;;;;;;;;;;;;2202969;59;2396;-17
2024/02/14 13:02:39;;;;;;;;;;;;;;;;;;2204473;59;2543;-17
2024/02/14 13:05:13;;;;;;;;;;;;;;;;;;2202956;67;1860;-18
2024/02/14 13:07:46;;;;;;;;;;;;;;;;;;2201968;67;2793;-18
2024/02/14 13:10:18;;;;;;;;;;;;;;;;;;2203304;67;1841;-18
2024/02/14 13:12:49;;;;;;;;;;;;;;;;;;2201739;67;1858;-18
2024/02/14 13:15:20;;;;;;;;;;;;;;;;;;2203413;59;1912;-18
2024/02/14 13:17:51;;;;;;;;;;;;;;;;;;2202018;67;1884;-18
2024/02/14 13:20:23;;;;;;;;;;;;;;;;;;2203803;67;2216;-18
2024/02/14 13:22:53;;;;;;;;;;;;;;;;;;2202397;59;2123;-18
2024/02/14 13:25:23;;;;;;;;;;;;;;;;;;2202822;67;1837;-18
2024/02/14 13:27:55;;;;;;;;;;;;;;;;;;2201353;67;2448;-18
2024/02/14 13:30:27;;;;;;;;;;;;;;;;;;2200625;67;1770;-18
2024/02/14 13:32:57;;;;;;;;;;;;;;;;;;2202303;59;2109;-17
2024/02/14 13:35:28;;;;;;;;;;;;;;;;;;2203307;67;1921;-20
2024/02/14 13:38:00;;;;;;;;;;;;;;;;;;2202838;59;2016;-19
2024/02/14 13:40:30;;;;;;;;;;;;;;;;;;2203219;67;1945;-19
2024/02/14 13:43:00;;;;;;;;;;;;;;;;;;2201903;59;1952;-19
2024/02/14 13:45:42;;;;;;;;;;;;;;;;;;2202586;67;1987;-19
2024/02/14 13:48:12;;;;;;;;;;;;;;;;;;2203982;59;3111;-19
2024/02/14 13:50:43;;;;;;;;;;;;;;;;;;2201288;59;2028;-19
2024/02/14 13:53:13;;;;;;;;;;;;;;;;;;2204480;60;2018;-19
2024/02/14 13:55:44;;;;;;;;;;;;;;;;;;2202972;59;2206;-19
2024/02/14 13:58:16;;;;;;;;;;;;;;;;;;2203630;67;1931;-32
2024/02/14 14:00:50;;;;;;;;;;;;;;;;;;2203097;59;2101;-20
2024/02/14 14:03:21;;;;;;;;;;;;;;;;;;2203345;59;1932;-19
2024/02/14 14:05:51;;;;;;;;;;;;;;;;;;2201876;67;1886;-19
2024/02/14 14:08:24;;;;;;;;;;;;;;;;;;2202346;67;2024;-19
2024/02/14 14:10:54;;;;;;;;;;;;;;;;;;2202836;67;1740;-19
2024/02/14 14:13:30;;;;;;;;;;;;;;;;;;2202788;59;2214;-19
2024/02/14 14:16:01;;;;;;;;;;;;;;;;;;2200804;67;2130;-19
2024/02/14 14:18:31;;;;;;;;;;;;;;;;;;2202453;67;1961;-20
2024/02/14 14:21:03;;;;;;;;;;;;;;;;;;2202295;67;2055;-19
2024/02/14 14:23:37;;;;;;;;;;;;;;;;;;2203726;59;2206;-19
2024/02/14 14:26:08;;;;;;;;;;;;;;;;;;2202754;67;2106;-19
2024/02/14 14:28:38;;;;;;;;;;;;;;;;;;2203594;67;2580;-19
2024/02/14 14:31:11;;;;;;;;;;;;;;;;;;2202553;67;2537;-19
2024/02/14 14:33:42;;;;;;;;;;;;;;;;;;2202217;67;3538;-19
2024/02/14 14:36:12;;;;;;;;;;;;;;;;;;2202975;59;2011;-19
2024/02/14 14:38:43;;;;;;;;;;;;;;;;;;2203271;59;2188;-19
2024/02/14 14:41:14;;;;;;;;;;;;;;;;;;2203921;59;1868;-20
2024/02/14 14:43:45;;;;;;;;;;;;;;;;;;2201012;67;1982;-19
2024/02/14 14:46:15;;;;;;;;;;;;;;;;;;2202811;59;2401;-19
2024/02/14 14:48:46;;;;;;;;;;;;;;;;;;2203619;59;1765;-19
2024/02/14 14:51:25;;;;;;;;;;;;;;;;;;2203979;59;1951;-20
2024/02/14 14:53:55;;;;;;;;;;;;;;;;;;2202777;67;1946;-19
2024/02/14 14:56:27;;;;;;;;;;;;;;;;;;2204019;59;2329;-19
2024/02/14 14:59:03;;;;;;;;;;;;;;;;;;2201847;67;2130;-19
2024/02/14 15:01:36;;;;;;;;;;;;;;;;;;2203441;59;2496;-19
2024/02/14 15:04:06;;;;;;;;;;;;;;;;;;2202159;59;2091;-19
2024/02/14 15:06:36;;;;;;;;;;;;;;;;;;2202454;67;2096;-19
2024/02/14 15:09:13;;;;;;;;;;;;;;;;;;2201360;59;2293;-19
2024/02/14 15:11:44;;;;;;;;;;;;;;;;;;2201915;67;2343;-21
2024/02/14 15:14:17;;;;;;;;;;;;;;;;;;2204628;59;3921;-19
2024/02/14 15:16:48;;;;;;;;;;;;;;;;;;2202955;59;2107;-19
2024/02/14 15:19:21;;;;;;;;;;;;;;;;;;2203018;67;1948;-19
2024/02/14 15:21:53;;;;;;;;;;;;;;;;;;2202691;59;2576;-19
2024/02/14 15:24:24;;;;;;;;;;;;;;;;;;2202459;67;1944;-19
2024/02/14 15:27:02;;;;;;;;;;;;;;;;;;2201854;67;2820;-19
2024/02/14 15:35:10;;;;;;;;;;;;;;;;;;2201340;59;1898;-19
2024/02/14 15:37:42;;;;;;;;;;;;;;;;;;2203087;59;1909;-19
2024/02/14 15:40:13;;;;;;;;;;;;;;;;;;2201551;67;2178;-19
2024/02/14 15:42:47;;;;;;;;;;;;;;;;;;2203357;59;1985;-19
2024/02/14 15:45:20;;;;;;;;;;;;;;;;;;2202903;67;2055;-19
2024/02/14 15:47:57;;;;;;;;;;;;;;;;;;2203849;59;2057;-19
2024/02/14 15:50:28;;;;;;;;;;;;;;;;;;2203341;59;1819;-19
2024/02/14 15:53:02;;;;;;;;;;;;;;;;;;2201798;59;1910;-19
2024/02/14 15:55:34;;;;;;;;;;;;;;;;;;2202928;59;2324;-19
2024/02/14 15:58:05;;;;;;;;;;;;;;;;;;2202463;59;2140;-19
2024/02/14 16:00:36;;;;;;;;;;;;;;;;;;2201974;59;1832;-19
2024/02/14 16:03:06;;;;;;;;;;;;;;;;;;2200803;59;1944;-19
2024/02/14 16:05:39;;;;;;;;;;;;;;;;;;2202374;59;2463;-19
2024/02/14 16:08:14;;;;;;;;;;;;;;;;;;2200408;59;2340;-19
2024/02/14 16:10:45;;;;;;;;;;;;;;;;;;2202839;67;2381;-19
2024/02/14 16:13:18;;;;;;;;;;;;;;;;;;2201050;59;2062;-19
2024/02/14 16:15:48;;;;;;;;;;;;;;;;;;2201159;67;2512;-19
2024/02/14 16:18:22;;;;;;;;;;;;;;;;;;2203451;67;1920;-19
2024/02/14 16:20:52;;;;;;;;;;;;;;;;;;2200993;67;1850;-19
2024/02/14 16:23:23;;;;;;;;;;;;;;;;;;2202442;59;1931;-21
2024/02/14 16:25:53;;;;;;;;;;;;;;;;;;2202702;67;2013;-19
2024/02/14 16:28:24;;;;;;;;;;;;;;;;;;2203411;59;2445;-19
2024/02/14 16:30:54;;;;;;;;;;;;;;;;;;2202094;67;2048;-19
2024/02/14 16:33:24;;;;;;;;;;;;;;;;;;2203389;59;2348;-19
2024/02/14 16:35:56;;;;;;;;;;;;;;;;;;2202595;59;2268;-19
2024/02/14 16:38:27;;;;;;;;;;;;;;;;;;2203470;59;3955;-19
2024/02/14 16:40:57;;;;;;;;;;;;;;;;;;2202970;59;2512;-19
2024/02/14 16:43:28;;;;;;;;;;;;;;;;;;2204019;67;1998;-19
2024/02/14 16:45:58;;;;;;;;;;;;;;;;;;2203116;59;1857;-19
2024/02/14 16:48:29;;;;;;;;;;;;;;;;;;2203135;59;1880;-19
2024/02/14 16:51:03;;;;;;;;;;;;;;;;;;2203520;59;2748;-19
2024/02/14 16:53:33;;;;;;;;;;;;;;;;;;2204108;59;2772;-19
2024/02/14 16:56:04;;;;;;;;;;;;;;;;;;2203043;59;2219;-19
2024/02/14 16:58:34;;;;;;;;;;;;;;;;;;2203951;67;2451;-19
2024/02/14 17:01:08;;;;;;;;;;;;;;;;;;2203832;67;1927;-19
2024/02/14 17:03:39;;;;;;;;;;;;;;;;;;2203854;59;1931;-19
2024/02/14 17:06:10;;;;;;;;;;;;;;;;;;2202854;67;2310;-19
2024/02/14 17:08:42;;;;;;;;;;;;;;;;;;2204302;67;1735;-19
2024/02/14 17:11:16;;;;;;;;;;;;;;;;;;2203274;67;1574;-19
2024/02/14 17:13:46;;;;;;;;;;;;;;;;;;2204695;59;1961;-19
2024/02/14 17:16:17;;;;;;;;;;;;;;;;;;2201704;67;2147;-19
2024/02/14 17:18:47;;;;;;;;;;;;;;;;;;2203498;67;1633;-19
2024/02/14 17:21:19;;;;;;;;;;;;;;;;;;2203726;59;1595;-19
2024/02/14 17:23:50;;;;;;;;;;;;;;;;;;2203857;59;1939;-19
2024/02/14 17:26:21;;;;;;;;;;;;;;;;;;2203753;67;1502;-19
2024/02/14 17:28:51;;;;;;;;;;;;;;;;;;2203893;67;1276;-19
2024/02/14 17:31:21;;;;;;;;;;;;;;;;;;2203784;67;1540;-19
2024/02/14 17:33:53;;;;;;;;;;;;;;;;;;2202676;59;1578;-19
2024/02/14 17:36:23;;;;;;;;;;;;;;;;;;2203399;59;1834;-19